KOGB/OGB METAR and TAF weather

Enter ICAO airport designator
Station Type Date Time Source
KOGB METAR 2021/09/23 18:53 UTC NOAA

KOGB 231853Z AUTO 31006KT 10SM CLR 24/12 A2993 RMK AO2 SLP134 T02440122 TSNO


Station Type Date Time Source
KOGB Decoded METAR 2021/09/23 18:53 UTC NOAA

ORANGEBURG MUNICIPAL AIRPORT, SC, United States (KOGB) 33-28N 080-51W 59M
Sep 23, 2021 - 02:53 PM EDT / 2021.09.23 1853 UTC
Wind: from the NW (310 degrees) at 7 MPH (6 KT):0
Visibility: 10 mile(s):0
Sky conditions: clear
Temperature: 75.9 F (24.4 C)
Dew Point: 54.0 F (12.2 C)
Relative Humidity: 46%
Pressure (altimeter): 29.93 in. Hg (1013 hPa)
ob: KOGB 231853Z AUTO 31006KT 10SM CLR 24/12 A2993 RMK AO2 SLP134 T02440122 TSNO
cycle: 19

Station Type Date Time Source
KOGB TAF 2021/09/23 19:33 UTC NOAA

TAF
AMD KOGB 231830Z 2319/2418 35006KT P6SM SKC
FM240300 01003KT P6SM SKC
FM241400 05010KT P6SM SKC

Example: see airport list